Latest Weather Observations for Dwellingup

IDW60801

Issued at 11:13 am WST Friday 16 November 2018 (issued every 10 minutes, with the page automatically refreshed every 10 minutes)

About weather observations | Map of weather stations | Latest weather observations for WA | Other Formats
Station Details ID: 009538 Name: DWELLINGUP Lat: -32.71 Lon: 116.06 Height: 267.0 m
Data from the previous 72 hours. | See also: Recent months at Dwellingup
Date/Time
WST
Temp
°C
App
Temp
°C
Dew
Point
°C
Rel
Hum
%
Delta-T
°C
Wind Press
QNH
hPa
Press
MSL
hPa
Rain since
9am
mm
Dir  Spd
km/h
Gust
km/h
Spd
kts
Gust
kts
16/11:00am 26.0 22.9 11.7 41 8.2 ESE 19 35 10 19 1016.4 1015.8 0.0
16/10:30am 24.9 21.7 11.8 44 7.5 ESE 20 35 11 19 1016.9 1016.3 0.0
16/10:00am 23.8 20.2 11.8 47 6.9 E 22 35 12 19 1017.2 1016.6 0.0
16/09:30am 21.8 18.0 11.2 51 5.9 ESE 22 44 12 24 1017.5 1016.9 0.0
16/09:00am 20.8 17.3 10.9 53 5.5 E 20 35 11 19 1018.0 1017.4 0.0
16/08:30am 19.3 15.4 10.8 58 4.7 ESE 22 37 12 20 1018.0 1017.4 0.0
16/08:00am 18.4 13.3 10.5 60 4.3 ESE 28 43 15 23 1018.1 1017.5 0.0
16/07:30am 16.6 12.4 9.8 64 3.6 ESE 22 35 12 19 1018.1 1017.5 0.0
16/07:00am 15.2 10.6 9.8 70 2.8 ESE 24 41 13 22 1018.1 1017.5 0.0
16/06:30am 14.1 9.5 9.5 74 2.4 ESE 24 39 13 21 1018.2 1017.6 0.0
16/06:00am 13.6 8.9 9.3 75 2.2 ESE 24 39 13 21 1018.3 1017.7 0.0
16/05:30am 13.3 8.1 8.8 74 2.3 ESE 26 41 14 22 1018.3 1017.7 0.0
16/05:00am 13.4 8.5 8.5 72 2.5 ESE 24 43 13 23 1018.1 1017.5 0.0
16/04:30am 13.7 8.7 8.1 69 2.8 ESE 24 37 13 20 1017.9 1017.3 0.0
16/04:00am 14.1 9.4 7.9 66 3.1 ESE 22 37 12 20 1018.1 1017.5 0.0
16/03:30am 14.3 9.5 7.4 63 3.4 ESE 22 41 12 22 1018.2 1017.6 0.0
16/03:00am 14.6 9.3 6.7 59 3.9 ESE 24 41 13 22 1018.3 1017.7 0.0
16/02:30am 15.0 9.1 5.8 54 4.5 ESE 26 44 14 24 1018.4 1017.8 0.0
16/02:00am 15.4 9.7 5.0 50 5.0 ESE 24 44 13 24 1018.2 1017.6 0.0
16/01:30am 16.0 9.9 4.7 47 5.4 ESE 26 43 14 23 1018.3 1017.7 0.0
16/01:11am 16.4 9.7 3.8 43 5.9 ESE 28 46 15 25 1018.4 1017.8 0.0
16/01:00am 16.6 10.8 4.3 44 5.8 ESE 24 41 13 22 1018.5 1018.0 0.0
16/12:43am 16.8 10.8 6.9 52 5.0 ESE 28 48 15 26 1018.6 1018.1 0.0
16/12:30am 17.0 11.5 7.4 53 4.9 ESE 26 41 14 22 1018.6 1018.1 0.0
16/12:05am 17.6 11.8 7.9 53 5.0 ESE 28 56 15 30 1018.9 1018.4 0.0
16/12:00am 17.7 12.7 8.0 53 5.0 ESE 24 43 13 23 1018.9 1018.4 0.0
 
Date/Time
WST
Temp
°C
App
Temp
°C
Dew
Point
°C
Rel
Hum
%
Delta-T
°C
Wind Press
QNH
hPa
Press
MSL
hPa
Rain since
9am
mm
Dir  Spd
km/h
Gust
km/h
Spd
kts
Gust
kts
15/11:30pm 18.7 14.7 8.9 53 5.2 ESE 20 41 11 22 1018.6 1018.1 0.0
15/11:06pm 19.4 13.9 9.0 51 5.5 ESE 28 48 15 26 1018.5 1018.0 0.0
15/11:00pm 19.7 14.6 9.3 51 5.6 ESE 26 44 14 24 1018.6 1018.1 0.0
15/10:30pm 20.5 14.6 9.1 48 6.1 ESE 30 48 16 26 1018.4 1017.8 0.0
15/10:11pm 21.1 15.2 9.0 46 6.5 ESE 30 52 16 28 1018.4 1017.8 0.0
15/10:00pm 21.4 16.3 9.3 46 6.5 ESE 26 43 14 23 1018.4 1017.8 0.0
15/09:30pm 22.3 16.9 9.5 44 7.0 ESE 28 54 15 29 1018.2 1017.6 0.0
15/09:01pm 23.3 17.8 9.0 40 7.8 ESE 28 54 15 29 1018.0 1017.4 0.0
15/09:00pm 23.4 18.2 9.0 40 7.8 ESE 26 52 14 28 1017.9 1017.3 0.0
15/08:30pm 24.4 19.2 7.1 33 9.1 SE 24 37 13 20 1017.5 1016.9 0.0
15/08:00pm 24.9 20.3 6.6 31 9.6 SE 20 30 11 16 1017.2 1016.6 0.0
15/07:30pm 24.4 20.5 7.1 33 9.1 SSE 17 28 9 15 1017.0 1016.4 0.0
15/07:00pm 25.9 22.1 7.5 31 9.9 SSE 17 28 9 15 1016.8 1016.2 0.0
15/06:30pm 27.4 23.8 6.8 27 11.0 SSE 15 24 8 13 1016.6 1016.0 0.0
15/06:00pm 28.6 25.2 7.8 27 11.4 S 15 19 8 10 1016.4 1015.8 0.0
15/05:30pm 29.6 26.4 6.9 24 12.3 SSW 13 19 7 10 1016.3 1015.7 0.0
15/05:00pm 30.8 27.9 6.6 22 13.1 SSW 11 20 6 11 1016.2 1015.6 0.0
15/04:30pm 31.1 27.9 6.9 22 13.2 SSW 13 24 7 13 1016.3 1015.7 0.0
15/04:00pm 30.8 27.0 6.0 21 13.3 SW 15 26 8 14 1016.4 1015.8 0.0
15/03:30pm 30.8 27.2 6.6 22 13.1 SSW 15 26 8 14 1016.4 1015.8 0.0
15/03:00pm 31.1 27.9 6.9 22 13.2 SSW 13 22 7 12 1016.5 1015.9 0.0
15/02:30pm 31.0 27.2 7.5 23 13.0 SSW 17 26 9 14 1016.7 1016.1 0.0
15/02:00pm 31.6 28.2 9.2 25 12.7 SSW 17 26 9 14 1016.9 1016.3 0.0
15/01:30pm 30.5 27.9 7.7 24 12.6 SSW 11 20 6 11 1017.1 1016.5 0.0
15/01:00pm 30.6 28.0 9.5 27 12.0 SSW 13 26 7 14 1017.3 1016.7 0.0
15/12:30pm 30.7 28.7 10.1 28 11.8 SSW 11 17 6 9 1017.4 1016.8 0.0
15/12:00pm 29.5 27.4 9.6 29 11.3 SW 11 17 6 9 1017.6 1017.0 0.0
15/11:30am 28.7 27.5 10.4 32 10.5 SE 7 13 4 7 1017.9 1017.3 0.0
15/11:00am 27.7 25.8 10.4 34 9.8 SSW 11 20 6 11 1018.2 1017.6 0.0
15/10:30am 27.0 25.1 11.9 39 8.8 SSW 13 20 7 11 1018.6 1018.1 0.0
15/10:00am 26.3 24.4 10.5 37 8.9 SSW 11 17 6 9 1018.6 1018.1 0.0
15/09:30am 24.1 22.6 10.4 42 7.7 SSE 9 13 5 7 1018.7 1018.2 0.0
15/09:00am 23.1 22.2 11.5 48 6.6 SE 7 9 4 5 1018.6 1018.1 0.0
15/08:30am 21.1 20.3 10.9 52 5.7 SE 6 9 3 5 1018.7 1018.2 0.0
15/08:00am 19.3 17.9 10.8 58 4.7 SE 9 13 5 7 1018.7 1018.2 0.0
15/07:30am 17.5 15.5 10.1 62 4.0 SE 11 15 6 8 1018.6 1018.1 0.0
15/07:00am 15.5 13.4 9.8 69 3.0 SE 11 17 6 9 1018.2 1017.6 0.0
15/06:30am 13.9 10.9 9.3 74 2.4 SE 15 24 8 13 1018.0 1017.4 0.0
15/06:00am 13.1 9.3 9.0 76 2.1 SE 19 26 10 14 1018.1 1017.5 0.0
15/05:30am 12.8 9.0 9.1 78 1.9 SE 19 26 10 14 1017.8 1017.2 0.0
15/05:00am 13.1 9.3 9.0 76 2.1 SE 19 24 10 13 1017.2 1016.6 0.0
15/04:30am 13.4 9.4 9.1 75 2.2 SE 20 30 11 16 1017.0 1016.4 0.0
15/04:00am 13.7 9.9 9.2 74 2.3 SE 19 26 10 14 1016.7 1016.1 0.0
15/03:30am 14.0 10.7 9.4 74 2.4 SE 17 26 9 14 1016.6 1016.0 0.0
15/03:00am 14.1 10.7 9.1 72 2.6 SE 17 22 9 12 1016.6 1016.0 0.0
15/02:30am 14.6 10.9 9.6 72 2.6 SE 19 26 10 14 1016.8 1016.2 0.0
15/02:00am 14.7 11.0 9.5 71 2.7 SE 19 26 10 14 1016.9 1016.3 0.0
15/01:30am 15.5 11.8 9.4 67 3.2 ESE 19 26 10 14 1016.9 1016.3 0.0
15/01:00am 15.9 12.3 9.8 67 3.2 SE 19 30 10 16 1017.0 1016.4 0.0
15/12:30am 16.9 13.6 9.6 62 3.9 SE 17 26 9 14 1017.0 1016.4 0.0
15/12:00am 16.6 13.9 10.2 66 3.4 SE 15 24 8 13 1017.1 1016.5 0.0
 
Date/Time
WST
Temp
°C
App
Temp
°C
Dew
Point
°C
Rel
Hum
%
Delta-T
°C
Wind Press
QNH
hPa
Press
MSL
hPa
Rain since
9am
mm
Dir  Spd
km/h
Gust
km/h
Spd
kts
Gust
kts
14/11:30pm 16.2 13.7 12.2 77 2.2 SE 17 26 9 14 1017.2 1016.6 0.0
14/11:00pm 15.9 13.7 12.1 78 2.1 SE 15 20 8 11 1017.3 1016.7 0.0
14/10:30pm 16.4 14.2 12.2 76 2.3 SSE 15 17 8 9 1017.2 1016.6 0.0
14/10:00pm 16.8 15.0 12.1 74 2.6 SSE 13 17 7 9 1017.4 1016.8 0.0
14/09:30pm 17.4 15.7 12.3 72 2.9 SSE 13 13 7 7 1017.6 1017.0 0.0
14/09:00pm 17.9 16.2 12.4 70 3.1 SSE 13 15 7 8 1017.6 1017.0 0.0
14/08:30pm 19.0 17.3 12.5 66 3.7 S 13 15 7 8 1017.6 1017.0 0.0
14/08:00pm 19.8 18.1 12.6 63 4.1 S 13 15 7 8 1017.4 1016.8 0.0
14/07:30pm 21.1 19.5 12.8 59 4.8 SW 13 19 7 10 1017.3 1016.7 0.0
14/07:00pm 22.8 21.6 12.7 53 5.8 SW 11 15 6 8 1017.3 1016.7 0.0
14/06:30pm 24.5 23.2 12.5 47 7.0 SW 11 17 6 9 1017.0 1016.4 0.0
14/06:00pm 26.5 25.0 11.8 40 8.5 SW 11 17 6 9 1016.9 1016.3 0.0
14/05:30pm 27.1 25.0 11.2 37 9.1 SSW 13 19 7 10 1016.7 1016.1 0.0
14/05:00pm 28.5 26.1 10.2 32 10.4 SW 13 26 7 14 1016.8 1016.2 0.0
14/04:30pm 28.7 28.1 7.3 26 11.6 CALM 0 0 0 0 1016.7 1016.1 0.0
14/04:00pm 28.2 25.9 7.4 27 11.3 SW 9 13 5 7 1016.9 1016.3 0.0
14/03:30pm 28.8 27.6 7.9 27 11.5 ENE 4 9 2 5 1017.0 1016.4 0.0
14/03:00pm 28.2 26.2 8.5 29 10.9 ENE 9 15 5 8 1017.3 1016.7 0.0
14/02:30pm 27.6 26.1 9.0 31 10.3 NNE 7 13 4 7 1017.7 1017.1 0.0
14/02:00pm 26.6 25.5 8.6 32 9.9 NNE 4 11 2 6 1018.0 1017.4 0.0
14/01:30pm 26.2 24.4 9.5 35 9.3 SE 9 19 5 10 1018.2 1017.6 0.0
14/01:00pm 25.8 24.0 9.6 36 9.0 E 9 19 5 10 1018.5 1018.0 0.0
14/12:30pm 26.0 23.6 10.2 37 8.9 SE 13 20 7 11 1018.9 1018.4 0.0
14/12:00pm 24.7 22.8 10.6 41 7.9 ENE 11 17 6 9 1019.1 1018.6 0.0
14/11:30am 23.2 20.9 10.3 44 7.2 E 13 22 7 12 1019.5 1019.0 0.0
14/11:00am 23.0 20.4 10.8 46 6.8 ENE 15 26 8 14 1019.8 1019.2 0.0
14/10:30am 21.4 19.1 10.6 50 6.0 ESE 13 26 7 14 1020.1 1019.5 0.0
14/10:00am 20.5 18.2 10.3 52 5.6 ENE 13 19 7 10 1020.3 1019.7 0.0
14/09:30am 19.3 16.4 9.5 53 5.3 ESE 15 28 8 15 1020.4 1019.8 0.0
14/09:00am 18.6 14.8 9.7 56 4.8 ESE 20 32 11 17 1020.4 1019.8 0.0
14/08:30am 17.7 14.1 9.8 60 4.2 E 19 30 10 16 1020.4 1019.8 0.0
14/08:00am 16.2 12.4 9.2 63 3.7 E 19 32 10 17 1020.4 1019.8 0.0
14/07:30am 15.1 11.1 9.2 68 3.1 ESE 20 35 11 19 1020.4 1019.8 0.0
14/07:00am 13.9 9.6 9.3 74 2.4 ESE 22 39 12 21 1020.2 1019.6 0.0
14/06:30am 12.7 8.3 8.8 77 2.0 ESE 22 41 12 22 1020.3 1019.7 0.0
14/06:00am 11.9 7.8 8.6 80 1.7 ESE 20 30 11 16 1020.1 1019.5 0.0
14/05:30am 11.5 7.6 8.5 82 1.5 ESE 19 32 10 17 1020.0 1019.4 0.0
14/05:00am 11.2 7.6 8.4 83 1.4 ESE 17 28 9 15 1019.5 1019.0 0.0
14/04:30am 11.2 7.2 8.2 82 1.5 ESE 19 32 10 17 1019.3 1018.8 0.0
14/04:00am 11.5 7.5 8.4 81 1.5 ESE 19 35 10 19 1019.3 1018.8 0.0
14/03:30am 11.9 7.9 8.4 79 1.8 ESE 19 30 10 16 1019.3 1018.8 0.0
14/03:00am 12.3 8.2 8.6 78 1.9 ESE 20 33 11 18 1019.2 1018.7 0.0
14/02:30am 12.7 8.3 8.8 77 2.0 ESE 22 33 12 18 1019.0 1018.5 0.0
14/02:00am 13.4 8.7 9.1 75 2.2 ESE 24 39 13 21 1018.9 1018.4 0.0
14/01:30am 13.9 10.0 9.3 74 2.4 ESE 20 35 11 19 1019.0 1018.5 0.0
14/01:00am 14.4 10.5 9.6 73 2.5 ESE 20 33 11 18 1019.1 1018.6 0.0
14/12:30am 14.6 10.7 9.6 72 2.6 SE 20 30 11 16 1019.0 1018.5 0.0
14/12:00am 14.7 11.0 10.1 74 2.4 SE 20 33 11 18 1019.0 1018.5 0.0
 
Date/Time
WST
Temp
°C
App
Temp
°C
Dew
Point
°C
Rel
Hum
%
Delta-T
°C
Wind Press
QNH
hPa
Press
MSL
hPa
Rain since
9am
mm
Dir  Spd
km/h
Gust
km/h
Spd
kts
Gust
kts
13/11:30pm 15.1 11.5 10.7 75 2.4 SE 20 32 11 17 1019.0 1018.5 0.0
13/11:00pm 15.6 12.4 11.4 76 2.3 SE 19 24 10 13 1019.1 1018.6 0.0
13/10:30pm 15.6 13.0 12.0 79 2.0 SE 17 22 9 12 1019.0 1018.5 0.0
13/10:00pm 15.5 12.9 11.9 79 2.0 SSE 17 22 9 12 1019.1 1018.6 0.0
13/09:30pm 15.0 13.1 11.8 81 1.8 S 13 17 7 9 1019.2 1018.7 0.0
13/09:00pm 15.5 13.7 12.1 80 1.9 S 13 19 7 10 1019.2 1018.7 0.0
13/08:30pm 16.0 15.4 12.4 79 2.0 SSW 7 13 4 7 1019.0 1018.5 0.0
13/08:00pm 16.8 15.8 12.3 75 2.5 SW 9 15 5 8 1018.7 1018.2 0.0
13/07:30pm 17.6 17.1 12.5 72 2.9 SW 7 11 4 6 1018.5 1018.0 0.0
13/07:00pm 18.7 18.4 12.7 68 3.4 SW 6 13 3 7 1018.2 1017.6 0.0
13/06:30pm 19.7 18.5 12.9 65 3.9 SW 11 26 6 14 1018.0 1017.4 0.0
13/06:00pm 21.2 19.4 13.4 61 4.5 SW 15 24 8 13 1017.7 1017.1 0.0
13/05:30pm 21.9 20.3 13.8 60 4.8 SW 15 26 8 14 1017.4 1016.8 0.0
13/05:00pm 22.5 20.7 13.3 56 5.4 SSW 15 28 8 15 1017.2 1016.6 0.0
13/04:30pm 22.9 21.0 13.1 54 5.7 SW 15 26 8 14 1017.1 1016.5 0.0
13/04:00pm 23.4 20.5 13.0 52 6.1 SSW 20 30 11 16 1017.0 1016.4 0.0
13/03:30pm 24.6 21.0 12.9 48 6.8 WSW 24 35 13 19 1016.9 1016.3 0.0
13/03:00pm 24.4 21.9 8.4 36 8.6 WSW 11 20 6 11 1017.2 1016.6 0.0
13/02:30pm 25.1 22.7 10.2 39 8.3 SSW 13 24 7 13 1017.3 1016.7 0.0
13/02:00pm 24.3 21.8 10.9 43 7.6 SW 15 24 8 13 1017.3 1016.7 0.0
13/01:30pm 24.4 22.4 11.4 44 7.4 SW 13 22 7 12 1017.6 1017.0 0.0
13/01:00pm 24.2 22.5 11.2 44 7.4 WSW 11 19 6 10 1017.8 1017.2 0.0
13/12:30pm 23.7 22.4 11.4 46 7.0 SW 9 19 5 10 1017.9 1017.3 0.0
13/12:00pm 23.4 22.6 11.1 46 6.9 SSE 6 9 3 5 1018.1 1017.5 0.0
13/11:30am 23.1 22.3 11.8 49 6.4 E 7 17 4 9 1018.6 1018.1 0.0

Other Formats:

Comma delimited format used in spreadsheet applications
http://www.bom.gov.au/fwo/IDW60801/IDW60801.94620.axf

JavaScript Object Notation format (JSON) in row-major order
http://www.bom.gov.au/fwo/IDW60801/IDW60801.94620.json